createdAt,value
2018-04-18T00:00:20.721Z,71.13
2018-04-18T00:02:48.261Z,71.33
2018-04-18T00:05:15.825Z,71.56
2018-04-18T00:07:43.366Z,71.87
2018-04-18T00:10:10.883Z,72.21
2018-04-18T00:12:38.396Z,72.32
2018-04-18T00:15:05.962Z,72.48
2018-04-18T00:17:33.492Z,72.83
2018-04-18T00:20:00.996Z,73.17
2018-04-18T00:22:28.460Z,73.54
2018-04-18T00:24:56.067Z,73.93
2018-04-18T00:27:23.527Z,74.00
2018-04-18T00:29:51.113Z,74.14
2018-04-18T00:32:18.672Z,74.47
2018-04-18T00:37:18.874Z,75.12
2018-04-18T00:39:46.449Z,75.33
2018-04-18T00:42:14.036Z,75.52
2018-04-18T00:44:41.525Z,76.06
2018-04-18T00:47:09.071Z,76.04
2018-04-18T00:49:36.531Z,76.55
2018-04-18T00:52:04.024Z,76.80
2018-04-18T00:54:31.504Z,76.90
2018-04-18T00:56:58.996Z,77.01
2018-04-18T00:59:26.479Z,77.42
2018-04-18T01:01:53.969Z,77.67
2018-04-18T01:04:21.449Z,78.18
2018-04-18T01:06:48.948Z,78.60
2018-04-18T01:09:16.408Z,78.77
2018-04-18T01:11:43.889Z,78.87
2018-04-18T01:14:11.384Z,79.18
2018-04-18T01:16:38.845Z,79.33
2018-04-18T01:19:06.404Z,79.58
2018-04-18T01:21:33.873Z,79.95
2018-04-18T01:24:01.356Z,80.46
2018-04-18T01:26:28.857Z,80.72
2018-04-18T01:28:56.332Z,80.87
2018-04-18T01:31:23.838Z,81.12
2018-04-18T01:33:51.307Z,81.64
2018-04-18T01:36:18.785Z,81.99
2018-04-18T01:38:46.346Z,82.08
2018-04-18T01:41:13.828Z,82.30
2018-04-18T01:43:41.330Z,82.44
2018-04-18T01:46:08.833Z,82.64
2018-04-18T01:48:36.410Z,82.95
2018-04-18T01:51:03.928Z,82.95
2018-04-18T01:53:31.529Z,83.12
2018-04-18T01:55:59.032Z,83.15
2018-04-18T01:58:26.533Z,83.14
2018-04-18T02:00:54.025Z,83.31
2018-04-18T02:03:21.500Z,83.47
2018-04-18T02:05:48.978Z,83.58
2018-04-18T02:08:16.468Z,83.64
2018-04-18T02:10:43.992Z,84.10
2018-04-18T02:13:11.464Z,84.08
2018-04-18T02:15:38.962Z,84.14
2018-04-18T02:18:06.501Z,84.19
2018-04-18T02:20:34.026Z,84.17
2018-04-18T02:23:01.541Z,84.20
2018-04-18T02:25:29.023Z,84.10
2018-04-18T02:27:56.525Z,84.28
2018-04-18T02:30:24.013Z,84.53
2018-04-18T02:32:52.637Z,84.78
2018-04-18T02:35:20.089Z,84.85
2018-04-18T02:37:47.586Z,84.94
2018-04-18T02:40:15.147Z,85.00
2018-04-18T02:42:42.680Z,85.20
2018-04-18T02:45:10.215Z,85.62
2018-04-18T02:47:37.706Z,85.76
2018-04-18T02:50:05.241Z,85.82
2018-04-18T02:52:32.716Z,85.88
2018-04-18T02:55:00.192Z,85.96
2018-04-18T02:57:27.678Z,85.90
2018-04-18T02:59:55.135Z,85.96
2018-04-18T03:02:22.608Z,86.07
2018-04-18T03:04:50.112Z,86.25
2018-04-18T03:07:17.567Z,86.28
2018-04-18T03:09:45.077Z,86.36
2018-04-18T03:12:12.619Z,86.40
2018-04-18T03:14:40.132Z,86.48
2018-04-18T03:17:07.727Z,86.61
2018-04-18T03:19:35.187Z,86.66
2018-04-18T03:22:02.664Z,86.69
2018-04-18T03:24:30.123Z,86.80
2018-04-18T03:26:57.612Z,87.02
2018-04-18T03:29:25.104Z,87.06
2018-04-18T03:31:52.586Z,87.12
2018-04-18T03:34:20.137Z,87.10
2018-04-18T03:36:48.517Z,87.15
2018-04-18T03:39:15.979Z,87.30
2018-04-18T03:41:43.485Z,87.35
2018-04-18T03:44:10.968Z,87.34
2018-04-18T03:46:38.523Z,87.51
2018-04-18T03:49:06.033Z,87.73
2018-04-18T03:51:33.531Z,87.78
2018-04-18T03:54:01.045Z,87.87
2018-04-18T03:56:28.544Z,87.94
2018-04-18T03:58:56.022Z,87.85
2018-04-18T04:01:23.538Z,88.02
2018-04-18T04:03:51.018Z,88.01
2018-04-18T04:06:18.491Z,87.98
2018-04-18T04:08:46.173Z,87.83
2018-04-18T04:11:13.725Z,87.65
2018-04-18T04:13:41.220Z,87.56
2018-04-18T04:16:20.676Z,87.40
2018-04-18T04:18:59.972Z,87.25
2018-04-18T04:21:39.360Z,87.15
2018-04-18T04:24:18.716Z,86.87
2018-04-18T04:26:46.305Z,86.62
2018-04-18T04:29:13.816Z,86.49
2018-04-18T04:31:41.275Z,86.42
2018-04-18T04:34:08.747Z,86.21
2018-04-18T04:36:36.220Z,85.78
2018-04-18T04:39:03.700Z,83.67
2018-04-18T04:41:31.157Z,81.89
2018-04-18T04:43:58.623Z,81.96
2018-04-18T04:46:26.131Z,82.31
2018-04-18T04:48:53.598Z,82.70
2018-04-18T04:51:21.059Z,82.88
2018-04-18T04:53:48.635Z,83.05
2018-04-18T04:56:16.162Z,83.32
2018-04-18T04:58:43.671Z,83.35
2018-04-18T05:01:11.180Z,83.37
2018-04-18T05:03:38.650Z,83.17
2018-04-18T05:06:06.108Z,83.19
2018-04-18T05:08:33.600Z,82.99
2018-04-18T05:11:01.163Z,82.82
2018-04-18T05:13:28.624Z,82.59
2018-04-18T05:15:56.112Z,82.47
2018-04-18T05:18:23.578Z,82.22
2018-04-18T05:20:51.052Z,81.90
2018-04-18T05:23:18.617Z,81.70
2018-04-18T05:25:46.082Z,81.32
2018-04-18T05:28:13.610Z,81.10
2018-04-18T05:30:41.096Z,80.88
2018-04-18T05:33:08.586Z,80.61
2018-04-18T05:35:36.052Z,80.25
2018-04-18T05:38:03.503Z,80.08
2018-04-18T05:40:30.983Z,79.94
2018-04-18T05:42:58.440Z,79.92
2018-04-18T05:45:25.893Z,79.96
2018-04-18T05:47:53.431Z,79.78
2018-04-18T05:50:20.994Z,79.49
2018-04-18T05:52:48.472Z,79.23
2018-04-18T05:55:16.120Z,79.08
2018-04-18T05:57:43.611Z,78.63
2018-04-18T06:00:11.066Z,78.26
2018-04-18T06:02:38.575Z,77.56
2018-04-18T06:05:06.074Z,77.14
2018-04-18T06:07:33.589Z,77.04
2018-04-18T06:10:01.109Z,76.38
2018-04-18T06:12:28.699Z,75.55
2018-04-18T06:14:56.160Z,75.03
2018-04-18T06:17:23.655Z,75.02
2018-04-18T06:19:51.115Z,74.21
2018-04-18T06:22:18.640Z,73.84
2018-04-18T06:24:46.146Z,73.44
2018-04-18T06:27:13.664Z,72.96
2018-04-18T06:29:41.216Z,72.06
2018-04-18T06:32:08.791Z,71.37
2018-04-18T06:34:36.284Z,71.14
2018-04-18T06:37:03.773Z,70.38
2018-04-18T06:39:31.285Z,69.97
2018-04-18T06:41:58.767Z,69.61
2018-04-18T06:44:26.356Z,69.41
2018-04-18T06:46:53.857Z,68.55
2018-04-18T06:49:21.348Z,68.39
2018-04-18T06:51:48.922Z,68.00
2018-04-18T06:54:16.388Z,67.31
2018-04-18T06:56:43.882Z,66.97
2018-04-18T06:59:11.379Z,66.66
2018-04-18T07:01:38.843Z,65.44
2018-04-18T07:04:06.320Z,66.04
2018-04-18T07:06:33.775Z,66.43
2018-04-18T07:09:01.327Z,65.80
2018-04-18T07:11:28.833Z,64.43
2018-04-18T07:13:56.287Z,62.57
2018-04-18T07:16:23.822Z,61.62
2018-04-18T07:18:51.275Z,61.01
2018-04-18T07:21:18.793Z,60.34
2018-04-18T07:23:46.308Z,60.24
2018-04-18T07:26:13.810Z,59.48
2018-04-18T07:28:41.335Z,58.75
2018-04-18T07:31:08.899Z,58.03
2018-04-18T07:33:36.404Z,57.37
2018-04-18T07:36:03.894Z,57.21
2018-04-18T07:38:31.374Z,57.12
2018-04-18T07:40:58.876Z,57.26
2018-04-18T07:43:26.361Z,56.24
2018-04-18T07:45:53.860Z,55.52
2018-04-18T07:48:21.385Z,55.70
2018-04-18T07:50:48.954Z,55.22
2018-04-18T07:53:16.429Z,54.83
2018-04-18T07:55:43.881Z,54.61
2018-04-18T07:58:11.400Z,54.41
2018-04-18T08:00:38.896Z,53.79
2018-04-18T08:03:06.393Z,53.42
2018-04-18T08:05:33.904Z,53.50
2018-04-18T08:08:01.376Z,53.45
2018-04-18T08:10:28.834Z,52.93
2018-04-18T08:12:56.306Z,52.60
2018-04-18T08:15:23.841Z,52.03
2018-04-18T08:17:51.304Z,51.32
2018-04-18T08:20:18.787Z,50.93
2018-04-18T08:22:46.248Z,50.20
2018-04-18T08:25:13.717Z,49.32
2018-04-18T08:27:53.198Z,49.93
2018-04-18T08:30:20.761Z,49.02
2018-04-18T08:32:48.342Z,48.49
2018-04-18T08:35:15.800Z,47.13
2018-04-18T08:37:43.297Z,46.71
2018-04-18T08:40:10.791Z,46.03
2018-04-18T08:42:38.285Z,45.75
2018-04-18T08:45:05.876Z,45.91
2018-04-18T08:47:33.352Z,46.20
2018-04-18T08:50:00.837Z,46.08
2018-04-18T08:52:28.343Z,46.15
2018-04-18T08:54:55.816Z,46.23
2018-04-18T08:57:23.315Z,46.48
2018-04-18T08:59:50.799Z,46.79
2018-04-18T09:02:18.285Z,47.29
2018-04-18T09:04:45.797Z,47.66
2018-04-18T09:07:13.313Z,47.83
2018-04-18T09:09:40.824Z,47.73
2018-04-18T09:12:08.323Z,47.46
2018-04-18T09:14:35.881Z,47.55
2018-04-18T09:17:03.361Z,47.56
2018-04-18T09:19:30.852Z,46.85
2018-04-18T09:21:58.328Z,46.64
2018-04-18T09:24:25.780Z,46.93
2018-04-18T09:26:53.251Z,47.07
2018-04-18T09:29:20.849Z,46.87
2018-04-18T09:31:48.311Z,46.52
2018-04-18T09:34:15.780Z,46.81
2018-04-18T09:36:43.256Z,46.59
2018-04-18T09:39:10.747Z,46.55
2018-04-18T09:41:38.245Z,46.37
2018-04-18T09:44:05.728Z,46.14
2018-04-18T09:46:33.277Z,45.59
2018-04-18T09:49:00.752Z,45.76
2018-04-18T09:51:28.268Z,46.03
2018-04-18T09:53:55.737Z,45.39
2018-04-18T09:56:23.224Z,45.39
2018-04-18T09:58:50.703Z,45.11
2018-04-18T10:01:20.137Z,44.75
2018-04-18T10:03:53.276Z,44.72
2018-04-18T10:06:20.727Z,44.35
2018-04-18T10:08:48.180Z,44.47
2018-04-18T10:11:15.648Z,43.97
2018-04-18T10:13:43.195Z,43.42
2018-04-18T10:16:10.745Z,43.16
2018-04-18T10:18:38.213Z,43.31
2018-04-18T10:21:05.777Z,42.98
2018-04-18T10:23:33.299Z,42.63
2018-04-18T10:26:00.880Z,42.63
2018-04-18T10:28:28.368Z,42.26
2018-04-18T10:30:55.853Z,42.02
2018-04-18T10:33:23.333Z,41.73
2018-04-18T10:35:50.920Z,41.56
2018-04-18T10:38:18.399Z,40.93
2018-04-18T10:40:45.868Z,41.19
2018-04-18T10:43:13.340Z,41.47
2018-04-18T10:45:40.844Z,42.03
2018-04-18T10:48:08.303Z,42.30
2018-04-18T10:50:35.824Z,41.90
2018-04-18T10:53:03.288Z,41.49
2018-04-18T10:55:30.782Z,40.48
2018-04-18T10:57:58.274Z,40.36
2018-04-18T11:00:25.764Z,39.80
2018-04-18T11:02:53.248Z,40.36
2018-04-18T11:05:20.753Z,40.56
2018-04-18T11:07:48.265Z,40.46
2018-04-18T11:10:15.747Z,39.84
2018-04-18T11:12:43.245Z,39.65
2018-04-18T11:15:10.715Z,39.24
2018-04-18T11:17:38.216Z,39.22
2018-04-18T11:20:05.682Z,39.80
2018-04-18T11:22:33.192Z,40.16
2018-04-18T11:25:00.754Z,40.06
2018-04-18T11:27:28.279Z,39.98
2018-04-18T11:29:55.791Z,39.89
2018-04-18T11:32:23.251Z,39.83
2018-04-18T11:34:50.760Z,39.92
2018-04-18T11:37:18.261Z,39.77
2018-04-18T11:39:45.834Z,39.20
2018-04-18T11:42:13.297Z,39.23
2018-04-18T11:44:40.816Z,38.87
2018-04-18T11:47:08.310Z,38.69
2018-04-18T11:49:35.807Z,38.15
2018-04-18T11:52:03.325Z,38.01
2018-04-18T11:54:30.778Z,37.97
2018-04-18T11:56:58.244Z,37.53
2018-04-18T11:59:25.739Z,36.65
2018-04-18T12:01:53.276Z,36.48
2018-04-18T12:04:20.766Z,36.37
2018-04-18T12:06:48.364Z,36.53
2018-04-18T12:09:15.861Z,36.86
2018-04-18T12:11:43.348Z,36.54
2018-04-18T12:14:10.823Z,36.79
2018-04-18T12:16:38.316Z,36.92
2018-04-18T12:19:05.888Z,36.33
2018-04-18T12:21:33.366Z,36.20
2018-04-18T12:24:00.854Z,36.35
2018-04-18T12:26:28.394Z,36.51
2018-04-18T12:28:55.871Z,36.24
2018-04-18T12:31:23.376Z,36.35
2018-04-18T12:33:50.879Z,35.16
2018-04-18T12:36:18.346Z,34.96
2018-04-18T12:38:45.812Z,35.12
2018-04-18T12:41:13.314Z,35.37
2018-04-18T12:43:40.810Z,35.13
2018-04-18T12:46:08.324Z,33.42
2018-04-18T12:48:35.795Z,32.98
2018-04-18T12:51:03.288Z,33.71
2018-04-18T12:53:30.843Z,34.81
2018-04-18T12:55:58.314Z,34.24
2018-04-18T12:58:25.775Z,33.75
2018-04-18T13:00:53.234Z,33.76
2018-04-18T13:03:20.733Z,32.99
2018-04-18T13:05:48.218Z,32.58
2018-04-18T13:08:15.721Z,32.81
2018-04-18T13:10:43.352Z,33.15
2018-04-18T13:13:10.815Z,33.79
2018-04-18T13:15:38.336Z,34.52
2018-04-18T13:18:05.802Z,35.11
2018-04-18T13:20:33.324Z,35.73
2018-04-18T13:23:00.808Z,34.39
2018-04-18T13:25:28.355Z,34.54
2018-04-18T13:27:55.869Z,34.06
2018-04-18T13:30:23.470Z,34.43
2018-04-18T13:32:50.954Z,35.05
2018-04-18T13:35:18.459Z,35.00
2018-04-18T13:37:45.917Z,35.23
2018-04-18T13:40:13.412Z,34.21
2018-04-18T13:42:40.872Z,34.14
2018-04-18T13:45:08.353Z,33.25
2018-04-18T13:47:35.824Z,34.08
2018-04-18T13:50:03.407Z,34.47
2018-04-18T13:52:30.893Z,34.99
2018-04-18T13:54:58.417Z,35.64
2018-04-18T13:57:25.930Z,35.43
2018-04-18T13:59:53.444Z,34.55
2018-04-18T14:02:20.916Z,33.28
2018-04-18T14:04:48.439Z,34.17
2018-04-18T14:07:15.933Z,35.06
2018-04-18T14:09:43.467Z,35.58
2018-04-18T14:12:10.923Z,34.99
2018-04-18T14:14:38.467Z,34.75
2018-04-18T14:17:05.952Z,33.54
2018-04-18T14:19:33.460Z,32.85
2018-04-18T14:22:00.915Z,32.23
2018-04-18T14:24:28.379Z,32.23
2018-04-18T14:26:55.836Z,32.62
2018-04-18T14:29:23.318Z,33.05
2018-04-18T14:31:50.882Z,32.96
2018-04-18T14:34:18.477Z,31.58
2018-04-18T14:36:45.971Z,31.64
2018-04-18T14:39:13.455Z,31.54
2018-04-18T14:41:40.975Z,31.58
2018-04-18T14:44:08.443Z,32.37
2018-04-18T14:46:35.943Z,32.29
2018-04-18T14:49:03.407Z,32.37
2018-04-18T14:51:30.909Z,32.78
2018-04-18T14:53:58.437Z,33.04
2018-04-18T14:56:25.894Z,33.32
2018-04-18T14:58:53.390Z,33.07
2018-04-18T15:01:20.893Z,32.69
2018-04-18T15:03:48.369Z,32.58
2018-04-18T15:06:15.889Z,32.67
2018-04-18T15:08:43.490Z,32.13
2018-04-18T15:11:11.014Z,31.36
2018-04-18T15:13:38.522Z,31.14
2018-04-18T15:16:06.020Z,30.96
2018-04-18T15:18:33.510Z,29.87
2018-04-18T15:21:01.089Z,30.31
2018-04-18T15:23:28.631Z,30.90
2018-04-18T15:25:56.332Z,31.36
2018-04-18T15:28:23.815Z,29.86
2018-04-18T15:30:51.288Z,28.99
2018-04-18T15:33:18.752Z,28.55
2018-04-18T15:35:46.266Z,28.17
2018-04-18T15:38:13.768Z,27.29
2018-04-18T15:40:41.258Z,26.62
2018-04-18T15:43:08.772Z,26.70
2018-04-18T15:45:36.259Z,27.03
2018-04-18T15:48:09.612Z,27.28
2018-04-18T15:50:37.239Z,27.42
2018-04-18T15:53:04.700Z,27.27
2018-04-18T15:55:32.235Z,27.31
2018-04-18T15:57:59.750Z,28.02
2018-04-18T16:00:27.233Z,28.21
2018-04-18T16:02:54.709Z,27.33
2018-04-18T16:05:22.186Z,26.90
2018-04-18T16:07:49.673Z,27.50
2018-04-18T16:10:17.166Z,28.03
2018-04-18T16:12:44.669Z,28.32
2018-04-18T16:15:12.139Z,28.46
2018-04-18T16:17:39.583Z,28.47
2018-04-18T16:20:07.076Z,29.36
2018-04-18T16:22:34.585Z,30.45
2018-04-18T16:25:02.099Z,31.42
2018-04-18T16:27:29.559Z,32.17
2018-04-18T16:29:57.059Z,32.79
2018-04-18T16:32:24.571Z,33.16
2018-04-18T16:34:52.061Z,32.68
2018-04-18T16:37:19.512Z,32.46
2018-04-18T16:39:47.010Z,31.72
2018-04-18T16:42:14.513Z,31.57
2018-04-18T16:44:42.107Z,31.87
2018-04-18T16:47:09.656Z,33.36
2018-04-18T16:49:37.105Z,33.65
2018-04-18T16:52:04.579Z,34.42
2018-04-18T16:54:32.081Z,35.01
2018-04-18T16:56:59.548Z,35.95
2018-04-18T16:59:27.006Z,36.39
2018-04-18T17:01:54.540Z,36.79
2018-04-18T17:04:21.998Z,37.18
2018-04-18T17:06:49.539Z,37.41
2018-04-18T17:09:17.056Z,37.85
2018-04-18T17:11:44.524Z,38.28
2018-04-18T17:14:12.008Z,38.60
2018-04-18T17:16:39.468Z,38.95
2018-04-18T17:19:06.923Z,39.14
2018-04-18T17:21:34.410Z,39.29
2018-04-18T17:24:01.874Z,39.74
2018-04-18T17:26:29.348Z,40.09
2018-04-18T17:28:56.961Z,40.30
2018-04-18T17:31:24.441Z,40.60
2018-04-18T17:33:52.075Z,40.53
2018-04-18T17:36:19.588Z,40.76
2018-04-18T17:38:47.096Z,41.27
2018-04-18T17:41:14.626Z,41.40
2018-04-18T17:43:42.110Z,41.66
2018-04-18T17:46:09.605Z,42.04
2018-04-18T17:48:37.134Z,42.36
2018-04-18T17:51:04.644Z,42.47
2018-04-18T17:53:32.101Z,42.73
2018-04-18T17:55:59.555Z,43.10
2018-04-18T17:58:27.135Z,43.47
2018-04-18T18:00:54.593Z,43.71
2018-04-18T18:03:22.166Z,43.71
2018-04-18T18:05:49.697Z,44.03
2018-04-18T18:08:17.235Z,44.24
2018-04-18T18:10:44.688Z,44.37
2018-04-18T18:13:12.193Z,44.58
2018-04-18T18:15:39.640Z,44.59
2018-04-18T18:18:07.120Z,44.76
2018-04-18T18:20:34.636Z,44.86
2018-04-18T18:23:02.241Z,44.86
2018-04-18T18:25:29.757Z,44.98
2018-04-18T18:27:57.362Z,45.04
2018-04-18T18:30:24.893Z,45.06
2018-04-18T18:32:52.392Z,45.44
2018-04-18T18:35:19.917Z,45.68
2018-04-18T18:37:47.425Z,45.99
2018-04-18T18:40:14.941Z,47.10
2018-04-18T18:42:42.436Z,47.17
2018-04-18T18:45:09.948Z,47.22
2018-04-18T18:47:37.443Z,47.37
2018-04-18T18:50:04.902Z,47.74
2018-04-18T18:52:32.411Z,48.21
2018-04-18T18:54:59.908Z,48.06
2018-04-18T18:57:27.446Z,48.15
2018-04-18T18:59:54.961Z,48.23
2018-04-18T19:02:22.462Z,48.32
2018-04-18T19:04:49.987Z,48.27
2018-04-18T19:07:17.477Z,49.06
2018-04-18T19:09:44.972Z,49.61
2018-04-18T19:12:12.452Z,49.94
2018-04-18T19:14:39.911Z,50.12
2018-04-18T19:17:07.407Z,50.15
2018-04-18T19:19:34.934Z,49.99
2018-04-18T19:22:02.409Z,49.77
2018-04-18T19:24:29.928Z,49.54
2018-04-18T19:26:57.423Z,49.55
2018-04-18T19:29:24.908Z,49.72
2018-04-18T19:31:52.437Z,49.67
2018-04-18T19:34:19.957Z,49.75
2018-04-18T19:36:47.528Z,50.86
2018-04-18T19:39:15.070Z,51.76
2018-04-18T19:41:42.629Z,51.95
2018-04-18T19:44:10.104Z,52.43
2018-04-18T19:46:37.589Z,52.99
2018-04-18T19:49:05.173Z,53.00
2018-04-18T19:51:32.664Z,53.47
2018-04-18T19:54:00.116Z,54.24
2018-04-18T19:56:27.612Z,54.83
2018-04-18T19:58:55.069Z,55.26
2018-04-18T20:01:22.565Z,55.95
2018-04-18T20:03:50.052Z,55.90
2018-04-18T20:06:17.566Z,56.27
2018-04-18T20:08:45.064Z,56.24
2018-04-18T20:11:12.525Z,57.00
2018-04-18T20:13:40.040Z,57.50
2018-04-18T20:16:07.531Z,57.53
2018-04-18T20:18:35.027Z,57.24
2018-04-18T20:21:02.518Z,57.73
2018-04-18T20:23:29.983Z,57.83
2018-04-18T20:25:57.471Z,58.06
2018-04-18T20:28:25.033Z,58.85
2018-04-18T20:30:52.475Z,58.29
2018-04-18T20:33:19.990Z,58.16
2018-04-18T20:35:47.486Z,58.55
2018-04-18T20:38:14.939Z,58.13
2018-04-18T20:40:42.420Z,58.18
2018-04-18T20:43:09.956Z,58.79
2018-04-18T20:45:37.414Z,59.02
2018-04-18T20:48:04.891Z,59.43
2018-04-18T20:50:32.440Z,59.46
2018-04-18T20:52:59.995Z,60.17
2018-04-18T20:55:27.506Z,60.09
2018-04-18T20:57:55.060Z,59.73
2018-04-18T21:00:22.567Z,60.11
2018-04-18T21:02:50.076Z,60.11
2018-04-18T21:05:17.567Z,59.61
2018-04-18T21:07:45.048Z,60.52
2018-04-18T21:10:12.659Z,61.00
2018-04-18T21:12:40.206Z,60.99
2018-04-18T21:15:07.743Z,61.04
2018-04-18T21:17:35.299Z,61.59
2018-04-18T21:20:02.871Z,60.88
2018-04-18T21:22:30.439Z,62.08
2018-04-18T21:24:57.945Z,61.54
2018-04-18T21:27:25.573Z,62.44
2018-04-18T21:29:53.065Z,59.12
2018-04-18T21:32:20.575Z,57.85
2018-04-18T21:34:48.077Z,57.28
2018-04-18T21:37:15.601Z,56.43
2018-04-18T21:39:43.063Z,55.43
2018-04-18T21:42:10.544Z,55.37
2018-04-18T21:44:38.036Z,55.17
2018-04-18T21:47:05.500Z,56.44
2018-04-18T21:49:33.048Z,56.95
2018-04-18T21:52:00.516Z,56.23
2018-04-18T21:54:28.068Z,56.15
2018-04-18T21:56:55.632Z,56.42
2018-04-18T21:59:23.083Z,57.04
2018-04-18T22:01:50.586Z,58.36
2018-04-18T22:04:18.092Z,59.94
2018-04-18T22:06:45.581Z,59.98
2018-04-18T22:09:13.063Z,60.23
2018-04-18T22:11:40.561Z,60.73
2018-04-18T22:14:08.053Z,61.14
2018-04-18T22:16:35.557Z,61.13
2018-04-18T22:19:03.055Z,61.71
2018-04-18T22:21:30.602Z,61.95
2018-04-18T22:23:58.102Z,62.34
2018-04-18T22:26:25.559Z,63.31
2018-04-18T22:28:53.035Z,63.28
2018-04-18T22:31:20.525Z,63.52
2018-04-18T22:33:48.022Z,63.76
2018-04-18T22:36:15.554Z,64.34
2018-04-18T22:38:43.161Z,64.46
2018-04-18T22:41:10.721Z,64.78
2018-04-18T22:43:38.235Z,64.78
2018-04-18T22:46:05.692Z,64.95
2018-04-18T22:48:33.153Z,65.27
2018-04-18T22:51:00.661Z,65.42
2018-04-18T22:53:28.140Z,65.43
2018-04-18T22:55:55.649Z,65.05
2018-04-18T22:58:23.153Z,65.03
2018-04-18T23:00:50.611Z,65.09
2018-04-18T23:03:18.084Z,65.43
2018-04-18T23:05:45.555Z,65.66
2018-04-18T23:08:13.103Z,66.07
2018-04-18T23:10:40.664Z,66.28
2018-04-18T23:13:08.176Z,66.41
2018-04-18T23:15:35.737Z,66.66
2018-04-18T23:18:03.261Z,67.05
2018-04-18T23:20:30.803Z,66.74
2018-04-18T23:22:58.296Z,66.47
2018-04-18T23:25:25.797Z,66.47
2018-04-18T23:27:53.298Z,66.30
2018-04-18T23:30:20.862Z,66.52
2018-04-18T23:32:48.382Z,66.76
2018-04-18T23:35:15.867Z,66.90
2018-04-18T23:37:43.390Z,67.31
2018-04-18T23:40:10.905Z,67.74
2018-04-18T23:42:38.391Z,67.99
2018-04-18T23:45:05.894Z,67.93
2018-04-18T23:47:33.367Z,67.89
2018-04-18T23:50:00.863Z,67.84
2018-04-18T23:52:28.471Z,67.76
2018-04-18T23:54:55.931Z,68.13
2018-04-18T23:57:23.418Z,68.33
2018-04-18T23:59:50.933Z,68.19
